sensor_id;sensor_type;location;lat;lon;timestamp;pressure;altitude;pressure_sealevel;temperature
69545;BMP180;56766;52.260;20.746;2023-04-24T00:01:01;99605.40;;;9.10
69545;BMP180;56766;52.260;20.746;2023-04-24T00:03:27;99610.40;;;9.00
69545;BMP180;56766;52.260;20.746;2023-04-24T00:05:55;99612.20;;;8.96
69545;BMP180;56766;52.260;20.746;2023-04-24T00:08:21;99611.00;;;8.90
69545;BMP180;56766;52.260;20.746;2023-04-24T00:10:48;99608.00;;;8.88
69545;BMP180;56766;52.260;20.746;2023-04-24T00:13:14;99604.20;;;8.80
69545;BMP180;56766;52.260;20.746;2023-04-24T00:15:41;99600.60;;;8.80
69545;BMP180;56766;52.260;20.746;2023-04-24T00:18:07;99597.00;;;8.80
69545;BMP180;56766;52.260;20.746;2023-04-24T00:20:34;99596.60;;;8.74
69545;BMP180;56766;52.260;20.746;2023-04-24T00:23:01;99590.80;;;8.70
69545;BMP180;56766;52.260;20.746;2023-04-24T00:25:27;99595.00;;;8.70
69545;BMP180;56766;52.260;20.746;2023-04-24T00:27:54;99592.60;;;8.70
69545;BMP180;56766;52.260;20.746;2023-04-24T00:30:20;99588.80;;;8.60
69545;BMP180;56766;52.260;20.746;2023-04-24T00:32:46;99588.60;;;8.60
69545;BMP180;56766;52.260;20.746;2023-04-24T00:35:12;99584.80;;;8.54
69545;BMP180;56766;52.260;20.746;2023-04-24T00:37:39;99584.80;;;8.50
69545;BMP180;56766;52.260;20.746;2023-04-24T00:40:10;99581.20;;;8.40
69545;BMP180;56766;52.260;20.746;2023-04-24T00:42:37;99580.60;;;8.40
69545;BMP180;56766;52.260;20.746;2023-04-24T00:45:05;99576.80;;;8.40
69545;BMP180;56766;52.260;20.746;2023-04-24T00:47:33;99579.80;;;8.30
69545;BMP180;56766;52.260;20.746;2023-04-24T00:50:06;99579.40;;;8.26
69545;BMP180;56766;52.260;20.746;2023-04-24T00:52:32;99579.20;;;8.20
69545;BMP180;56766;52.260;20.746;2023-04-24T00:54:59;99574.40;;;8.20
69545;BMP180;56766;52.260;20.746;2023-04-24T00:57:26;99576.20;;;8.20
69545;BMP180;56766;52.260;20.746;2023-04-24T00:59:54;99571.60;;;8.10
69545;BMP180;56766;52.260;20.746;2023-04-24T01:02:22;99567.60;;;8.10
69545;BMP180;56766;52.260;20.746;2023-04-24T01:04:50;99571.20;;;8.10
69545;BMP180;56766;52.260;20.746;2023-04-24T01:07:20;99567.60;;;8.00
69545;BMP180;56766;52.260;20.746;2023-04-24T01:09:51;99566.00;;;8.00
69545;BMP180;56766;52.260;20.746;2023-04-24T01:12:19;99567.60;;;8.00
69545;BMP180;56766;52.260;20.746;2023-04-24T01:14:49;99564.60;;;8.00
69545;BMP180;56766;52.260;20.746;2023-04-24T01:17:15;99558.80;;;8.10
69545;BMP180;56766;52.260;20.746;2023-04-24T01:19:41;99560.40;;;8.10
69545;BMP180;56766;52.260;20.746;2023-04-24T01:22:14;99562.80;;;8.14
69545;BMP180;56766;52.260;20.746;2023-04-24T01:24:41;99568.40;;;8.20
69545;BMP180;56766;52.260;20.746;2023-04-24T01:27:10;99570.20;;;8.10
69545;BMP180;56766;52.260;20.746;2023-04-24T01:29:38;99577.60;;;8.00
69545;BMP180;56766;52.260;20.746;2023-04-24T01:32:06;99578.60;;;7.98
69545;BMP180;56766;52.260;20.746;2023-04-24T01:34:33;99579.00;;;7.92
69545;BMP180;56766;52.260;20.746;2023-04-24T01:37:00;99571.00;;;7.90
69545;BMP180;56766;52.260;20.746;2023-04-24T01:39:26;99566.00;;;7.90
69545;BMP180;56766;52.260;20.746;2023-04-24T01:41:55;99570.60;;;7.90
69545;BMP180;56766;52.260;20.746;2023-04-24T01:44:23;99573.00;;;7.90
69545;BMP180;56766;52.260;20.746;2023-04-24T01:46:49;99560.20;;;7.90
69545;BMP180;56766;52.260;20.746;2023-04-24T01:49:16;99556.20;;;7.82
69545;BMP180;56766;52.260;20.746;2023-04-24T01:51:43;99560.40;;;7.80
69545;BMP180;56766;52.260;20.746;2023-04-24T01:54:09;99559.20;;;7.80
69545;BMP180;56766;52.260;20.746;2023-04-24T01:56:41;99560.80;;;7.80
69545;BMP180;56766;52.260;20.746;2023-04-24T01:59:10;99562.80;;;7.70
69545;BMP180;56766;52.260;20.746;2023-04-24T02:01:39;99552.20;;;7.70
69545;BMP180;56766;52.260;20.746;2023-04-24T02:04:07;99555.00;;;7.70
69545;BMP180;56766;52.260;20.746;2023-04-24T02:06:33;99551.40;;;7.70
69545;BMP180;56766;52.260;20.746;2023-04-24T02:09:00;99547.40;;;7.60
69545;BMP180;56766;52.260;20.746;2023-04-24T02:11:27;99545.20;;;7.50
69545;BMP180;56766;52.260;20.746;2023-04-24T02:13:54;99548.20;;;7.50
69545;BMP180;56766;52.260;20.746;2023-04-24T02:16:20;99540.40;;;7.50
69545;BMP180;56766;52.260;20.746;2023-04-24T02:18:46;99537.40;;;7.42
69545;BMP180;56766;52.260;20.746;2023-04-24T02:21:14;99533.60;;;7.40
69545;BMP180;56766;52.260;20.746;2023-04-24T02:23:42;99522.80;;;7.40
69545;BMP180;56766;52.260;20.746;2023-04-24T02:26:08;99523.60;;;7.40
69545;BMP180;56766;52.260;20.746;2023-04-24T02:28:35;99518.20;;;7.40
69545;BMP180;56766;52.260;20.746;2023-04-24T02:31:01;99519.80;;;7.40
69545;BMP180;56766;52.260;20.746;2023-04-24T02:33:28;99517.00;;;7.38
69545;BMP180;56766;52.260;20.746;2023-04-24T02:35:55;99516.60;;;7.38
69545;BMP180;56766;52.260;20.746;2023-04-24T02:38:21;99512.80;;;7.40
69545;BMP180;56766;52.260;20.746;2023-04-24T02:40:47;99511.20;;;7.40
69545;BMP180;56766;52.260;20.746;2023-04-24T02:43:13;99510.00;;;7.40
69545;BMP180;56766;52.260;20.746;2023-04-24T02:45:39;99511.40;;;7.50
69545;BMP180;56766;52.260;20.746;2023-04-24T02:48:05;99507.40;;;7.50
69545;BMP180;56766;52.260;20.746;2023-04-24T02:50:31;99505.80;;;7.52
69545;BMP180;56766;52.260;20.746;2023-04-24T02:52:58;99506.60;;;7.60
69545;BMP180;56766;52.260;20.746;2023-04-24T02:55:24;99502.40;;;7.60
69545;BMP180;56766;52.260;20.746;2023-04-24T02:57:51;99502.00;;;7.60
69545;BMP180;56766;52.260;20.746;2023-04-24T03:00:17;99501.80;;;7.60
69545;BMP180;56766;52.260;20.746;2023-04-24T03:02:43;99496.80;;;7.70
69545;BMP180;56766;52.260;20.746;2023-04-24T03:05:10;99492.60;;;7.70
69545;BMP180;56766;52.260;20.746;2023-04-24T03:07:38;99492.00;;;7.70
69545;BMP180;56766;52.260;20.746;2023-04-24T03:10:05;99491.80;;;7.70
69545;BMP180;56766;52.260;20.746;2023-04-24T03:12:32;99494.80;;;7.70
69545;BMP180;56766;52.260;20.746;2023-04-24T03:14:58;99495.40;;;7.76
69545;BMP180;56766;52.260;20.746;2023-04-24T03:17:24;99498.60;;;7.80
69545;BMP180;56766;52.260;20.746;2023-04-24T03:19:50;99494.00;;;7.80
69545;BMP180;56766;52.260;20.746;2023-04-24T03:22:16;99498.60;;;7.90
69545;BMP180;56766;52.260;20.746;2023-04-24T03:24:43;99500.00;;;7.90
69545;BMP180;56766;52.260;20.746;2023-04-24T03:27:09;99502.60;;;7.90
69545;BMP180;56766;52.260;20.746;2023-04-24T03:29:35;99502.00;;;7.90
69545;BMP180;56766;52.260;20.746;2023-04-24T03:32:01;99500.20;;;7.92
69545;BMP180;56766;52.260;20.746;2023-04-24T03:34:27;99503.80;;;8.00
69545;BMP180;56766;52.260;20.746;2023-04-24T03:36:53;99506.40;;;8.00
69545;BMP180;56766;52.260;20.746;2023-04-24T03:39:20;99504.60;;;8.10
69545;BMP180;56766;52.260;20.746;2023-04-24T03:41:46;99504.40;;;8.10
69545;BMP180;56766;52.260;20.746;2023-04-24T03:44:12;99509.60;;;8.20
69545;BMP180;56766;52.260;20.746;2023-04-24T03:46:38;99505.20;;;8.30
69545;BMP180;56766;52.260;20.746;2023-04-24T03:49:04;99501.40;;;8.40
69545;BMP180;56766;52.260;20.746;2023-04-24T03:51:30;99507.20;;;8.46
69545;BMP180;56766;52.260;20.746;2023-04-24T03:53:58;99502.80;;;8.50
69545;BMP180;56766;52.260;20.746;2023-04-24T03:56:24;99505.80;;;8.60
69545;BMP180;56766;52.260;20.746;2023-04-24T03:58:51;99502.40;;;8.70
69545;BMP180;56766;52.260;20.746;2023-04-24T04:01:16;99503.40;;;8.80
69545;BMP180;56766;52.260;20.746;2023-04-24T04:03:43;99504.60;;;8.90
69545;BMP180;56766;52.260;20.746;2023-04-24T04:06:10;99500.60;;;9.06
69545;BMP180;56766;52.260;20.746;2023-04-24T04:08:37;99503.20;;;9.20
69545;BMP180;56766;52.260;20.746;2023-04-24T04:11:03;99502.60;;;9.30
69545;BMP180;56766;52.260;20.746;2023-04-24T04:13:29;99505.80;;;9.40
69545;BMP180;56766;52.260;20.746;2023-04-24T04:16:00;99504.40;;;9.52
69545;BMP180;56766;52.260;20.746;2023-04-24T04:18:26;99501.60;;;9.70
69545;BMP180;56766;52.260;20.746;2023-04-24T04:20:52;99505.20;;;9.80
69545;BMP180;56766;52.260;20.746;2023-04-24T04:23:18;99507.60;;;9.90
69545;BMP180;56766;52.260;20.746;2023-04-24T04:25:44;99507.80;;;10.06
69545;BMP180;56766;52.260;20.746;2023-04-24T04:28:10;99502.20;;;10.20
69545;BMP180;56766;52.260;20.746;2023-04-24T04:30:36;99505.60;;;10.30
69545;BMP180;56766;52.260;20.746;2023-04-24T04:33:04;99499.40;;;10.40
69545;BMP180;56766;52.260;20.746;2023-04-24T04:35:30;99502.60;;;10.58
69545;BMP180;56766;52.260;20.746;2023-04-24T04:37:56;99504.60;;;10.70
69545;BMP180;56766;52.260;20.746;2023-04-24T04:40:25;99503.40;;;10.80
69545;BMP180;56766;52.260;20.746;2023-04-24T04:42:51;99505.40;;;10.90
69545;BMP180;56766;52.260;20.746;2023-04-24T04:45:19;99493.80;;;11.10
69545;BMP180;56766;52.260;20.746;2023-04-24T04:47:47;99497.20;;;11.28
69545;BMP180;56766;52.260;20.746;2023-04-24T04:50:13;99495.20;;;11.44
69545;BMP180;56766;52.260;20.746;2023-04-24T04:52:39;99495.80;;;11.66
69545;BMP180;56766;52.260;20.746;2023-04-24T04:55:06;99498.60;;;11.80
69545;BMP180;56766;52.260;20.746;2023-04-24T04:57:33;99495.20;;;11.90
69545;BMP180;56766;52.260;20.746;2023-04-24T04:59:59;99495.40;;;11.90
69545;BMP180;56766;52.260;20.746;2023-04-24T05:02:26;99495.00;;;11.90
69545;BMP180;56766;52.260;20.746;2023-04-24T05:04:52;99498.40;;;11.90
69545;BMP180;56766;52.260;20.746;2023-04-24T05:07:19;99496.60;;;11.92
69545;BMP180;56766;52.260;20.746;2023-04-24T05:09:45;99490.40;;;11.90
69545;BMP180;56766;52.260;20.746;2023-04-24T05:12:11;99492.20;;;11.90
69545;BMP180;56766;52.260;20.746;2023-04-24T05:14:37;99484.00;;;11.90
69545;BMP180;56766;52.260;20.746;2023-04-24T05:17:03;99483.40;;;11.90
69545;BMP180;56766;52.260;20.746;2023-04-24T05:19:29;99484.20;;;11.90
69545;BMP180;56766;52.260;20.746;2023-04-24T05:21:55;99492.20;;;12.00
69545;BMP180;56766;52.260;20.746;2023-04-24T05:24:21;99486.40;;;12.00
69545;BMP180;56766;52.260;20.746;2023-04-24T05:26:50;99487.00;;;12.08
69545;BMP180;56766;52.260;20.746;2023-04-24T05:29:16;99484.80;;;12.10
69545;BMP180;56766;52.260;20.746;2023-04-24T05:31:45;99481.80;;;12.12
69545;BMP180;56766;52.260;20.746;2023-04-24T05:34:11;99481.80;;;12.20
69545;BMP180;56766;52.260;20.746;2023-04-24T05:36:38;99477.20;;;12.20
69545;BMP180;56766;52.260;20.746;2023-04-24T05:39:04;99477.80;;;12.30
69545;BMP180;56766;52.260;20.746;2023-04-24T05:41:30;99480.80;;;12.30
69545;BMP180;56766;52.260;20.746;2023-04-24T05:43:57;99474.40;;;12.40
69545;BMP180;56766;52.260;20.746;2023-04-24T05:46:23;99478.20;;;12.50
69545;BMP180;56766;52.260;20.746;2023-04-24T05:48:49;99474.00;;;12.60
69545;BMP180;56766;52.260;20.746;2023-04-24T05:51:15;99477.00;;;12.70
69545;BMP180;56766;52.260;20.746;2023-04-24T05:53:41;99478.80;;;13.02
69545;BMP180;56766;52.260;20.746;2023-04-24T05:56:07;99474.20;;;13.40
69545;BMP180;56766;52.260;20.746;2023-04-24T05:58:33;99477.40;;;13.80
69545;BMP180;56766;52.260;20.746;2023-04-24T06:00:59;99477.20;;;14.10
69545;BMP180;56766;52.260;20.746;2023-04-24T06:03:27;99473.20;;;14.40
69545;BMP180;56766;52.260;20.746;2023-04-24T06:05:53;99476.20;;;14.50
69545;BMP180;56766;52.260;20.746;2023-04-24T06:08:19;99465.60;;;14.60
69545;BMP180;56766;52.260;20.746;2023-04-24T06:10:45;99468.60;;;14.70
69545;BMP180;56766;52.260;20.746;2023-04-24T06:13:11;99471.40;;;14.88
69545;BMP180;56766;52.260;20.746;2023-04-24T06:15:39;99461.00;;;15.12
69545;BMP180;56766;52.260;20.746;2023-04-24T06:18:06;99471.00;;;15.30
69545;BMP180;56766;52.260;20.746;2023-04-24T06:20:32;99470.20;;;15.30
69545;BMP180;56766;52.260;20.746;2023-04-24T06:22:58;99463.40;;;15.30
69545;BMP180;56766;52.260;20.746;2023-04-24T06:25:26;99460.20;;;15.30
69545;BMP180;56766;52.260;20.746;2023-04-24T06:27:52;99458.00;;;15.38
69545;BMP180;56766;52.260;20.746;2023-04-24T06:30:19;99454.60;;;15.42
69545;BMP180;56766;52.260;20.746;2023-04-24T06:32:46;99451.20;;;15.50
69545;BMP180;56766;52.260;20.746;2023-04-24T06:35:11;99449.40;;;15.68
69545;BMP180;56766;52.260;20.746;2023-04-24T06:37:42;99449.80;;;15.70
69545;BMP180;56766;52.260;20.746;2023-04-24T06:40:09;99444.60;;;15.80
69545;BMP180;56766;52.260;20.746;2023-04-24T06:42:36;99444.20;;;15.80
69545;BMP180;56766;52.260;20.746;2023-04-24T06:45:03;99440.20;;;15.90
69545;BMP180;56766;52.260;20.746;2023-04-24T06:47:29;99440.00;;;16.10
69545;BMP180;56766;52.260;20.746;2023-04-24T06:49:55;99440.60;;;16.30
69545;BMP180;56766;52.260;20.746;2023-04-24T06:52:21;99445.20;;;16.40
69545;BMP180;56766;52.260;20.746;2023-04-24T06:54:47;99442.80;;;16.66
69545;BMP180;56766;52.260;20.746;2023-04-24T06:57:14;99438.00;;;16.90
69545;BMP180;56766;52.260;20.746;2023-04-24T06:59:42;99441.00;;;17.10
69545;BMP180;56766;52.260;20.746;2023-04-24T07:02:08;99439.20;;;17.28
69545;BMP180;56766;52.260;20.746;2023-04-24T07:04:34;99437.40;;;17.48
69545;BMP180;56766;52.260;20.746;2023-04-24T07:07:00;99436.40;;;17.64
69545;BMP180;56766;52.260;20.746;2023-04-24T07:09:27;99438.00;;;17.80
69545;BMP180;56766;52.260;20.746;2023-04-24T07:11:53;99432.20;;;18.02
69545;BMP180;56766;52.260;20.746;2023-04-24T07:14:19;99429.80;;;18.22
69545;BMP180;56766;52.260;20.746;2023-04-24T07:16:46;99429.80;;;18.46
69545;BMP180;56766;52.260;20.746;2023-04-24T07:19:13;99429.60;;;18.70
69545;BMP180;56766;52.260;20.746;2023-04-24T07:21:39;99434.80;;;18.90
69545;BMP180;56766;52.260;20.746;2023-04-24T07:24:06;99433.00;;;19.10
69545;BMP180;56766;52.260;20.746;2023-04-24T07:26:35;99432.40;;;19.26
69545;BMP180;56766;52.260;20.746;2023-04-24T07:29:01;99439.60;;;19.40
69545;BMP180;56766;52.260;20.746;2023-04-24T07:31:27;99439.80;;;19.60
69545;BMP180;56766;52.260;20.746;2023-04-24T07:33:53;99440.80;;;19.80
69545;BMP180;56766;52.260;20.746;2023-04-24T07:36:19;99438.80;;;19.98
69545;BMP180;56766;52.260;20.746;2023-04-24T07:38:46;99442.00;;;20.08
69545;BMP180;56766;52.260;20.746;2023-04-24T07:41:13;99443.40;;;20.10
69545;BMP180;56766;52.260;20.746;2023-04-24T07:43:41;99443.00;;;20.20
69545;BMP180;56766;52.260;20.746;2023-04-24T07:46:08;99441.00;;;20.20
69545;BMP180;56766;52.260;20.746;2023-04-24T07:48:35;99442.20;;;20.20
69545;BMP180;56766;52.260;20.746;2023-04-24T07:51:01;99440.40;;;20.20
69545;BMP180;56766;52.260;20.746;2023-04-24T07:53:27;99440.60;;;20.40
69545;BMP180;56766;52.260;20.746;2023-04-24T07:55:56;99435.40;;;20.64
69545;BMP180;56766;52.260;20.746;2023-04-24T07:58:23;99434.60;;;20.80
69545;BMP180;56766;52.260;20.746;2023-04-24T08:00:49;99433.20;;;20.66
69545;BMP180;56766;52.260;20.746;2023-04-24T08:03:16;99431.20;;;20.60
69545;BMP180;56766;52.260;20.746;2023-04-24T08:05:45;99427.60;;;20.50
69545;BMP180;56766;52.260;20.746;2023-04-24T08:08:13;99427.00;;;20.34
69545;BMP180;56766;52.260;20.746;2023-04-24T08:10:39;99425.60;;;20.10
69545;BMP180;56766;52.260;20.746;2023-04-24T08:13:05;99431.80;;;19.90
69545;BMP180;56766;52.260;20.746;2023-04-24T08:15:31;99432.80;;;19.90
69545;BMP180;56766;52.260;20.746;2023-04-24T08:17:58;99430.40;;;19.90
69545;BMP180;56766;52.260;20.746;2023-04-24T08:20:24;99430.60;;;20.10
69545;BMP180;56766;52.260;20.746;2023-04-24T08:22:50;99434.80;;;20.10
69545;BMP180;56766;52.260;20.746;2023-04-24T08:25:17;99430.00;;;20.06
69545;BMP180;56766;52.260;20.746;2023-04-24T08:27:44;99431.40;;;20.00
69545;BMP180;56766;52.260;20.746;2023-04-24T08:30:11;99437.40;;;19.98
69545;BMP180;56766;52.260;20.746;2023-04-24T08:32:37;99433.00;;;20.00
69545;BMP180;56766;52.260;20.746;2023-04-24T08:35:04;99433.60;;;20.10
69545;BMP180;56766;52.260;20.746;2023-04-24T08:37:30;99435.00;;;20.38
69545;BMP180;56766;52.260;20.746;2023-04-24T08:39:56;99434.00;;;20.50
69545;BMP180;56766;52.260;20.746;2023-04-24T08:42:22;99431.20;;;20.64
69545;BMP180;56766;52.260;20.746;2023-04-24T08:44:49;99431.60;;;20.84
69545;BMP180;56766;52.260;20.746;2023-04-24T08:47:17;99433.60;;;21.06
69545;BMP180;56766;52.260;20.746;2023-04-24T08:49:44;99431.20;;;21.54
69545;BMP180;56766;52.260;20.746;2023-04-24T08:52:12;99433.20;;;21.90
69545;BMP180;56766;52.260;20.746;2023-04-24T08:54:41;99427.40;;;22.10
69545;BMP180;56766;52.260;20.746;2023-04-24T08:57:11;99427.20;;;22.46
69545;BMP180;56766;52.260;20.746;2023-04-24T08:59:40;99425.80;;;22.86
69545;BMP180;56766;52.260;20.746;2023-04-24T09:02:10;99426.00;;;23.20
69545;BMP180;56766;52.260;20.746;2023-04-24T09:04:38;99424.60;;;23.48
69545;BMP180;56766;52.260;20.746;2023-04-24T09:07:07;99422.60;;;23.72
69545;BMP180;56766;52.260;20.746;2023-04-24T09:09:37;99420.20;;;23.90
69545;BMP180;56766;52.260;20.746;2023-04-24T09:12:06;99414.20;;;23.74
69545;BMP180;56766;52.260;20.746;2023-04-24T09:14:33;99417.00;;;23.70
69545;BMP180;56766;52.260;20.746;2023-04-24T09:16:59;99413.20;;;23.60
69545;BMP180;56766;52.260;20.746;2023-04-24T09:19:24;99410.60;;;23.60
69545;BMP180;56766;52.260;20.746;2023-04-24T09:21:52;99407.00;;;23.70
69545;BMP180;56766;52.260;20.746;2023-04-24T09:24:21;99405.60;;;23.90
69545;BMP180;56766;52.260;20.746;2023-04-24T09:26:58;99403.00;;;24.00
69545;BMP180;56766;52.260;20.746;2023-04-24T09:29:25;99404.40;;;23.90
69545;BMP180;56766;52.260;20.746;2023-04-24T09:31:51;99402.80;;;23.90
69545;BMP180;56766;52.260;20.746;2023-04-24T09:34:22;99397.60;;;23.70
69545;BMP180;56766;52.260;20.746;2023-04-24T09:36:50;99399.40;;;23.70
69545;BMP180;56766;52.260;20.746;2023-04-24T09:39:18;99399.60;;;23.90
69545;BMP180;56766;52.260;20.746;2023-04-24T09:41:54;99403.20;;;24.10
69545;BMP180;56766;52.260;20.746;2023-04-24T09:44:27;99398.60;;;24.14
69545;BMP180;56766;52.260;20.746;2023-04-24T09:46:59;99388.20;;;24.38
69545;BMP180;56766;52.260;20.746;2023-04-24T09:49:28;99398.40;;;24.90
69545;BMP180;56766;52.260;20.746;2023-04-24T09:52:06;99395.20;;;25.00
69545;BMP180;56766;52.260;20.746;2023-04-24T09:54:33;99390.40;;;24.90
69545;BMP180;56766;52.260;20.746;2023-04-24T09:56:59;99388.80;;;24.70
69545;BMP180;56766;52.260;20.746;2023-04-24T09:59:30;99386.20;;;24.50
69545;BMP180;56766;52.260;20.746;2023-04-24T10:01:56;99384.00;;;24.50
69545;BMP180;56766;52.260;20.746;2023-04-24T10:04:27;99384.20;;;24.80
69545;BMP180;56766;52.260;20.746;2023-04-24T10:06:56;99380.60;;;25.20
69545;BMP180;56766;52.260;20.746;2023-04-24T10:09:26;99374.60;;;25.60
69545;BMP180;56766;52.260;20.746;2023-04-24T10:11:54;99367.40;;;25.90
69545;BMP180;56766;52.260;20.746;2023-04-24T10:14:23;99369.00;;;26.10
69545;BMP180;56766;52.260;20.746;2023-04-24T10:16:55;99369.20;;;26.20
69545;BMP180;56766;52.260;20.746;2023-04-24T10:19:26;99370.60;;;26.30
69545;BMP180;56766;52.260;20.746;2023-04-24T10:21:53;99372.00;;;26.40
69545;BMP180;56766;52.260;20.746;2023-04-24T10:24:21;99362.00;;;26.50
69545;BMP180;56766;52.260;20.746;2023-04-24T10:26:48;99361.00;;;26.48
69545;BMP180;56766;52.260;20.746;2023-04-24T10:29:18;99358.40;;;26.40
69545;BMP180;56766;52.260;20.746;2023-04-24T10:31:44;99356.00;;;26.40
69545;BMP180;56766;52.260;20.746;2023-04-24T10:34:16;99351.60;;;26.30
69545;BMP180;56766;52.260;20.746;2023-04-24T10:36:51;99354.20;;;26.10
69545;BMP180;56766;52.260;20.746;2023-04-24T10:39:20;99347.40;;;26.06
69545;BMP180;56766;52.260;20.746;2023-04-24T10:41:49;99347.00;;;26.20
69545;BMP180;56766;52.260;20.746;2023-04-24T10:44:16;99341.60;;;26.30
69545;BMP180;56766;52.260;20.746;2023-04-24T10:46:46;99342.40;;;26.40
69545;BMP180;56766;52.260;20.746;2023-04-24T10:49:14;99347.80;;;26.30
69545;BMP180;56766;52.260;20.746;2023-04-24T10:51:48;99340.20;;;26.20
69545;BMP180;56766;52.260;20.746;2023-04-24T10:59:51;99332.60;;;25.80
69545;BMP180;56766;52.260;20.746;2023-04-24T11:02:35;99328.80;;;25.70
69545;BMP180;56766;52.260;20.746;2023-04-24T11:05:06;99331.40;;;25.40
69545;BMP180;56766;52.260;20.746;2023-04-24T11:08:14;99331.60;;;25.30
69545;BMP180;56766;52.260;20.746;2023-04-24T11:10:54;99333.20;;;25.30
69545;BMP180;56766;52.260;20.746;2023-04-24T11:13:22;99335.40;;;25.30
69545;BMP180;56766;52.260;20.746;2023-04-24T11:21:47;99341.80;;;24.80
69545;BMP180;56766;52.260;20.746;2023-04-24T11:27:20;99333.60;;;24.70
69545;BMP180;56766;52.260;20.746;2023-04-24T11:30:02;99331.40;;;24.60
69545;BMP180;56766;52.260;20.746;2023-04-24T11:35:20;99337.00;;;24.96
69545;BMP180;56766;52.260;20.746;2023-04-24T11:37:51;99334.20;;;25.32
69545;BMP180;56766;52.260;20.746;2023-04-24T11:40:20;99326.80;;;25.60
69545;BMP180;56766;52.260;20.746;2023-04-24T11:42:54;99321.60;;;25.60
69545;BMP180;56766;52.260;20.746;2023-04-24T11:45:30;99322.80;;;25.76
69545;BMP180;56766;52.260;20.746;2023-04-24T11:47:57;99323.00;;;26.00
69545;BMP180;56766;52.260;20.746;2023-04-24T11:50:26;99327.40;;;26.10
69545;BMP180;56766;52.260;20.746;2023-04-24T11:52:54;99310.40;;;26.10
69545;BMP180;56766;52.260;20.746;2023-04-24T11:57:52;99299.80;;;25.90
69545;BMP180;56766;52.260;20.746;2023-04-24T12:00:22;99300.80;;;25.90
69545;BMP180;56766;52.260;20.746;2023-04-24T12:02:49;99297.20;;;25.90
69545;BMP180;56766;52.260;20.746;2023-04-24T12:05:35;99294.20;;;26.00
69545;BMP180;56766;52.260;20.746;2023-04-24T12:08:02;99293.00;;;26.12
69545;BMP180;56766;52.260;20.746;2023-04-24T12:10:31;99294.40;;;26.40
69545;BMP180;56766;52.260;20.746;2023-04-24T12:12:58;99281.20;;;26.70
69545;BMP180;56766;52.260;20.746;2023-04-24T12:15:27;99281.40;;;26.90
69545;BMP180;56766;52.260;20.746;2023-04-24T12:17:55;99275.60;;;26.92
69545;BMP180;56766;52.260;20.746;2023-04-24T12:20:30;99268.40;;;27.00
69545;BMP180;56766;52.260;20.746;2023-04-24T12:22:59;99269.40;;;26.80
69545;BMP180;56766;52.260;20.746;2023-04-24T12:25:31;99266.20;;;26.50
69545;BMP180;56766;52.260;20.746;2023-04-24T12:30:56;99265.40;;;25.64
69545;BMP180;56766;52.260;20.746;2023-04-24T12:33:22;99262.60;;;25.18
69545;BMP180;56766;52.260;20.746;2023-04-24T12:35:52;99266.00;;;24.80
69545;BMP180;56766;52.260;20.746;2023-04-24T12:38:24;99264.80;;;24.50
69545;BMP180;56766;52.260;20.746;2023-04-24T12:41:09;99265.20;;;24.12
69545;BMP180;56766;52.260;20.746;2023-04-24T12:43:36;99280.60;;;23.64
69545;BMP180;56766;52.260;20.746;2023-04-24T12:46:04;99280.40;;;23.20
69545;BMP180;56766;52.260;20.746;2023-04-24T12:48:31;99285.40;;;22.90
69545;BMP180;56766;52.260;20.746;2023-04-24T12:50:59;99293.20;;;22.64
69545;BMP180;56766;52.260;20.746;2023-04-24T12:53:29;99314.80;;;22.40
69545;BMP180;56766;52.260;20.746;2023-04-24T12:55:57;99327.80;;;21.90
69545;BMP180;56766;52.260;20.746;2023-04-24T12:58:24;99337.40;;;21.32
69545;BMP180;56766;52.260;20.746;2023-04-24T13:00:50;99349.20;;;21.00
69545;BMP180;56766;52.260;20.746;2023-04-24T13:03:17;99371.00;;;20.54
69545;BMP180;56766;52.260;20.746;2023-04-24T13:05:44;99388.20;;;20.12
69545;BMP180;56766;52.260;20.746;2023-04-24T13:08:11;99380.60;;;19.68
69545;BMP180;56766;52.260;20.746;2023-04-24T13:10:38;99384.60;;;19.24
69545;BMP180;56766;52.260;20.746;2023-04-24T13:13:06;99365.00;;;19.00
69545;BMP180;56766;52.260;20.746;2023-04-24T13:15:32;99367.20;;;19.20
69545;BMP180;56766;52.260;20.746;2023-04-24T13:17:58;99361.20;;;19.56
69545;BMP180;56766;52.260;20.746;2023-04-24T13:20:24;99353.40;;;19.96
69545;BMP180;56766;52.260;20.746;2023-04-24T13:22:51;99347.20;;;20.18
69545;BMP180;56766;52.260;20.746;2023-04-24T13:25:17;99357.80;;;20.40
69545;BMP180;56766;52.260;20.746;2023-04-24T13:27:43;99350.20;;;20.66
69545;BMP180;56766;52.260;20.746;2023-04-24T13:30:11;99330.40;;;20.98
69545;BMP180;56766;52.260;20.746;2023-04-24T13:32:37;99325.00;;;21.36
69545;BMP180;56766;52.260;20.746;2023-04-24T13:35:04;99320.60;;;21.72
69545;BMP180;56766;52.260;20.746;2023-04-24T13:37:30;99312.20;;;21.90
69545;BMP180;56766;52.260;20.746;2023-04-24T13:39:56;99301.40;;;21.90
69545;BMP180;56766;52.260;20.746;2023-04-24T13:42:22;99298.20;;;22.08
69545;BMP180;56766;52.260;20.746;2023-04-24T13:44:48;99289.60;;;22.30
69545;BMP180;56766;52.260;20.746;2023-04-24T13:47:14;99288.20;;;22.50
69545;BMP180;56766;52.260;20.746;2023-04-24T13:49:40;99289.60;;;22.40
69545;BMP180;56766;52.260;20.746;2023-04-24T13:52:07;99287.80;;;22.30
69545;BMP180;56766;52.260;20.746;2023-04-24T13:54:33;99282.20;;;22.20
69545;BMP180;56766;52.260;20.746;2023-04-24T13:56:59;99272.20;;;22.10
69545;BMP180;56766;52.260;20.746;2023-04-24T13:59:27;99266.00;;;22.10
69545;BMP180;56766;52.260;20.746;2023-04-24T14:01:53;99262.40;;;22.20
69545;BMP180;56766;52.260;20.746;2023-04-24T14:04:19;99263.80;;;22.30
69545;BMP180;56766;52.260;20.746;2023-04-24T14:06:45;99251.00;;;22.20
69545;BMP180;56766;52.260;20.746;2023-04-24T14:09:11;99249.80;;;22.10
69545;BMP180;56766;52.260;20.746;2023-04-24T14:11:40;99247.20;;;21.90
69545;BMP180;56766;52.260;20.746;2023-04-24T14:14:06;99249.40;;;21.78
69545;BMP180;56766;52.260;20.746;2023-04-24T14:16:34;99248.80;;;21.60
69545;BMP180;56766;52.260;20.746;2023-04-24T14:19:00;99250.00;;;21.40
69545;BMP180;56766;52.260;20.746;2023-04-24T14:21:26;99251.20;;;21.30
69545;BMP180;56766;52.260;20.746;2023-04-24T14:23:52;99254.60;;;21.20
69545;BMP180;56766;52.260;20.746;2023-04-24T14:26:19;99250.80;;;21.10